createdAt,value
2023-05-18T00:00:39.439Z,8.36
2023-05-18T00:03:26.776Z,8.36
2023-05-18T00:06:07.473Z,8.34
2023-05-18T00:08:54.385Z,8.31
2023-05-18T00:11:27.482Z,8.28
2023-05-18T00:14:15.370Z,8.25
2023-05-18T00:16:48.545Z,8.25
2023-05-18T00:19:36.468Z,8.28
2023-05-18T00:22:10.783Z,8.30
2023-05-18T00:24:57.316Z,8.30
2023-05-18T00:27:30.498Z,8.30
2023-05-18T00:30:18.361Z,8.26
2023-05-18T00:32:51.796Z,8.24
2023-05-18T00:35:38.308Z,8.23
2023-05-18T00:38:12.576Z,8.22
2023-05-18T00:40:59.328Z,8.24
2023-05-18T00:43:32.365Z,8.29
2023-05-18T00:46:19.300Z,8.32
2023-05-18T00:48:53.387Z,8.32
2023-05-18T00:51:41.322Z,8.31
2023-05-18T00:54:15.334Z,8.28
2023-05-18T00:57:02.303Z,8.28
2023-05-18T00:59:37.326Z,8.28
2023-05-18T01:02:24.278Z,8.31
2023-05-18T01:04:57.372Z,8.34
2023-05-18T01:07:49.609Z,8.35
2023-05-18T01:10:25.356Z,8.37
2023-05-18T01:13:31.193Z,8.39
2023-05-18T01:16:08.376Z,8.37
2023-05-18T01:19:07.249Z,8.33
2023-05-18T01:22:22.321Z,8.30
2023-05-18T01:25:39.193Z,8.30
2023-05-18T01:28:21.286Z,8.30
2023-05-18T01:31:09.281Z,8.31
2023-05-18T01:33:43.338Z,8.35
2023-05-18T01:36:30.207Z,8.37
2023-05-18T01:39:05.641Z,8.36
2023-05-18T01:42:03.137Z,8.32
2023-05-18T01:44:40.224Z,8.29
2023-05-18T01:47:27.191Z,8.28
2023-05-18T01:50:17.293Z,8.25
2023-05-18T01:53:07.134Z,8.30
2023-05-18T01:55:49.218Z,8.34
2023-05-18T01:58:30.130Z,8.34
2023-05-18T02:01:11.270Z,8.37
2023-05-18T02:03:51.173Z,8.35
2023-05-18T02:06:32.246Z,8.33
2023-05-18T02:09:12.364Z,8.30
2023-05-18T02:11:52.208Z,8.29
2023-05-18T02:14:32.095Z,8.29
2023-05-18T02:17:12.255Z,8.32
2023-05-18T02:19:52.091Z,8.32
2023-05-18T02:22:32.198Z,8.30
2023-05-18T02:25:12.105Z,8.30
2023-05-18T02:27:52.884Z,8.29
2023-05-18T02:30:33.002Z,8.24
2023-05-18T02:33:13.204Z,8.23
2023-05-18T02:35:53.096Z,8.25
2023-05-18T02:38:33.126Z,8.30
2023-05-18T02:41:14.032Z,8.33
2023-05-18T02:43:54.177Z,8.39
2023-05-18T02:46:34.015Z,8.43
2023-05-18T02:49:14.060Z,8.42
2023-05-18T02:51:53.971Z,8.42
2023-05-18T02:54:35.098Z,8.40
2023-05-18T02:57:20.974Z,8.30
2023-05-18T03:00:11.852Z,8.26
2023-05-18T03:02:55.052Z,8.23
2023-05-18T03:05:35.047Z,8.24
2023-05-18T03:08:16.988Z,8.25
2023-05-18T03:10:57.036Z,8.23
2023-05-18T03:13:37.193Z,8.23
2023-05-18T03:16:17.008Z,8.24
2023-05-18T03:18:57.975Z,8.28
2023-05-18T03:21:42.765Z,8.34
2023-05-18T03:24:22.866Z,8.41
2023-05-18T03:27:04.506Z,8.45
2023-05-18T03:29:44.896Z,8.48
2023-05-18T03:32:26.154Z,8.48
2023-05-18T03:35:07.932Z,8.51
2023-05-18T03:37:48.948Z,8.56
2023-05-18T03:40:29.914Z,8.59
2023-05-18T03:43:09.963Z,8.65
2023-05-18T03:45:50.893Z,8.70
2023-05-18T03:48:32.024Z,8.77
2023-05-18T03:51:12.886Z,8.84
2023-05-18T03:53:53.026Z,8.90
2023-05-18T03:56:33.861Z,8.97
2023-05-18T03:59:14.338Z,9.03
2023-05-18T04:01:54.880Z,9.06
2023-05-18T04:04:34.964Z,9.12
2023-05-18T04:07:15.841Z,9.20
2023-05-18T04:09:56.337Z,9.26
2023-05-18T04:12:36.809Z,9.32
2023-05-18T04:15:17.901Z,9.37
2023-05-18T04:18:00.947Z,9.41
2023-05-18T04:20:41.856Z,9.45
2023-05-18T04:23:22.792Z,9.48
2023-05-18T04:26:03.686Z,9.53
2023-05-18T04:28:46.740Z,9.59
2023-05-18T04:31:41.820Z,9.67
2023-05-18T04:34:28.778Z,9.74
2023-05-18T04:37:05.705Z,9.81
2023-05-18T04:39:52.755Z,9.86
2023-05-18T04:42:27.774Z,9.89
2023-05-18T04:45:14.738Z,9.91
2023-05-18T04:47:54.159Z,9.93
2023-05-18T04:50:42.817Z,9.98
2023-05-18T04:53:18.218Z,10.09
2023-05-18T04:56:04.660Z,10.20
2023-05-18T04:58:41.748Z,10.27
2023-05-18T05:01:28.880Z,10.30
2023-05-18T05:04:08.839Z,10.35
2023-05-18T05:06:48.680Z,10.39
2023-05-18T05:09:28.729Z,10.44
2023-05-18T05:12:08.676Z,10.48
2023-05-18T05:14:48.830Z,10.53
2023-05-18T05:17:29.671Z,10.52
2023-05-18T05:20:12.079Z,10.53
2023-05-18T05:22:53.092Z,10.58
2023-05-18T05:25:33.760Z,10.62
2023-05-18T05:28:14.603Z,10.66
2023-05-18T05:31:08.576Z,10.72
2023-05-18T05:33:56.573Z,10.82
2023-05-18T05:36:36.705Z,10.86
2023-05-18T05:39:18.597Z,10.88
2023-05-18T05:41:58.644Z,10.93
2023-05-18T05:44:38.548Z,10.99
2023-05-18T05:47:19.685Z,11.06
2023-05-18T05:49:59.631Z,11.11
2023-05-18T05:52:40.643Z,11.15
2023-05-18T05:55:20.590Z,11.21
2023-05-18T05:58:05.496Z,11.27
2023-05-18T06:00:45.545Z,11.26
2023-05-18T06:03:26.785Z,11.23
2023-05-18T06:06:08.522Z,11.19
2023-05-18T06:08:48.620Z,11.16
2023-05-18T06:11:30.557Z,11.17
2023-05-18T06:14:10.600Z,11.23
2023-05-18T06:16:50.633Z,11.28
2023-05-18T06:19:31.654Z,11.38
2023-05-18T06:22:11.539Z,11.44
2023-05-18T06:25:08.705Z,11.54
2023-05-18T06:28:01.758Z,11.62
2023-05-18T06:30:59.470Z,11.70
2023-05-18T06:33:58.424Z,11.72
2023-05-18T06:36:32.226Z,11.74
2023-05-18T06:39:19.440Z,11.76
2023-05-18T06:41:53.551Z,11.79
2023-05-18T06:44:45.434Z,11.86
2023-05-18T06:47:24.627Z,11.89
2023-05-18T06:50:11.477Z,11.91
2023-05-18T06:52:45.637Z,11.96
2023-05-18T06:55:32.698Z,12.01
2023-05-18T06:58:06.587Z,12.00
2023-05-18T07:00:53.412Z,12.03
2023-05-18T07:03:26.573Z,12.08
2023-05-18T07:06:13.417Z,12.13
2023-05-18T07:08:47.448Z,12.20
2023-05-18T07:11:34.428Z,12.17
2023-05-18T07:14:07.559Z,12.16
2023-05-18T07:16:54.413Z,12.17
2023-05-18T07:19:27.459Z,12.13
2023-05-18T07:22:14.362Z,12.13
2023-05-18T07:24:47.435Z,12.17
2023-05-18T07:27:35.395Z,12.19
2023-05-18T07:30:09.547Z,12.25
2023-05-18T07:32:58.472Z,12.28
2023-05-18T07:35:32.963Z,12.33
2023-05-18T07:38:20.296Z,12.38
2023-05-18T07:40:53.639Z,12.44
2023-05-18T07:43:40.276Z,12.45
2023-05-18T07:46:13.530Z,12.41
2023-05-18T07:49:00.339Z,12.44
2023-05-18T07:51:34.286Z,12.48
2023-05-18T07:54:21.315Z,12.54
2023-05-18T07:56:54.401Z,12.62
2023-05-18T07:59:41.300Z,12.74
2023-05-18T08:02:16.764Z,12.83
2023-05-18T08:05:03.295Z,12.89
2023-05-18T08:07:38.331Z,12.90
2023-05-18T08:10:25.277Z,12.93
2023-05-18T08:12:59.353Z,12.93
2023-05-18T08:15:56.131Z,12.93
2023-05-18T08:18:37.380Z,12.94
2023-05-18T08:21:24.260Z,12.97
2023-05-18T08:23:57.351Z,12.97
2023-05-18T08:26:44.260Z,12.93
2023-05-18T08:29:17.352Z,12.93
2023-05-18T08:32:04.278Z,12.97
2023-05-18T08:34:37.968Z,12.93
2023-05-18T08:37:25.310Z,12.93
2023-05-18T08:39:59.963Z,12.99
2023-05-18T08:42:57.201Z,13.09
2023-05-18T08:45:46.305Z,13.07
2023-05-18T08:48:35.307Z,13.07
2023-05-18T08:51:10.291Z,13.13
2023-05-18T08:54:00.146Z,13.19
2023-05-18T08:56:36.369Z,13.32
2023-05-18T08:59:30.108Z,13.45
2023-05-18T09:02:04.366Z,13.54
2023-05-18T09:04:53.317Z,13.67
2023-05-18T09:07:30.254Z,13.66
2023-05-18T09:10:19.098Z,13.63
2023-05-18T09:12:54.225Z,13.65
2023-05-18T09:15:44.116Z,13.72
2023-05-18T09:18:17.173Z,13.71
2023-05-18T09:21:04.278Z,13.71
2023-05-18T09:23:38.194Z,13.72
2023-05-18T09:26:27.039Z,13.76
2023-05-18T09:29:01.564Z,13.84
2023-05-18T09:31:48.136Z,13.92
2023-05-18T09:34:22.419Z,14.00
2023-05-18T09:37:09.085Z,14.10
2023-05-18T09:39:43.196Z,14.17
2023-05-18T09:42:34.293Z,14.29
2023-05-18T09:45:08.202Z,14.41
2023-05-18T09:47:57.152Z,14.50
2023-05-18T09:50:32.233Z,14.58
2023-05-18T09:53:21.042Z,14.59
2023-05-18T09:55:56.126Z,14.67
2023-05-18T09:58:43.046Z,14.76
2023-05-18T10:01:16.170Z,14.77
2023-05-18T10:04:11.014Z,14.78
2023-05-18T10:06:44.154Z,14.85
2023-05-18T10:09:30.962Z,14.92
2023-05-18T10:12:04.055Z,14.99
2023-05-18T10:14:52.950Z,15.13
2023-05-18T10:17:28.625Z,15.15
2023-05-18T10:20:16.944Z,15.16
2023-05-18T10:22:53.103Z,15.30
2023-05-18T10:25:40.935Z,15.40
2023-05-18T10:28:17.049Z,15.47
2023-05-18T10:31:18.094Z,15.55
2023-05-18T10:34:13.872Z,15.60
2023-05-18T10:37:02.876Z,15.69
2023-05-18T10:39:40.013Z,15.74
2023-05-18T10:42:28.927Z,15.79
2023-05-18T10:45:04.023Z,15.80
2023-05-18T10:47:51.151Z,15.85
2023-05-18T10:50:25.010Z,16.00
2023-05-18T10:53:12.863Z,16.17
2023-05-18T10:55:54.978Z,16.34
2023-05-18T10:58:37.860Z,16.50
2023-05-18T11:01:20.005Z,16.66
2023-05-18T11:03:59.889Z,16.66
2023-05-18T11:06:39.972Z,16.52
2023-05-18T11:09:30.862Z,16.50
2023-05-18T11:12:18.928Z,16.60
2023-05-18T11:15:00.834Z,16.75
2023-05-18T11:17:41.031Z,16.83
2023-05-18T11:20:21.804Z,16.90
2023-05-18T11:23:04.968Z,16.99
2023-05-18T11:25:45.904Z,17.26
2023-05-18T11:28:28.924Z,17.36
2023-05-18T11:31:08.805Z,17.55
2023-05-18T11:33:48.968Z,17.77
2023-05-18T11:36:30.812Z,18.04
2023-05-18T11:39:15.107Z,18.21
2023-05-18T11:42:06.807Z,18.22
2023-05-18T11:44:47.086Z,18.33
2023-05-18T11:47:26.746Z,18.47
2023-05-18T11:50:08.522Z,18.66
2023-05-18T11:52:56.958Z,18.70
2023-05-18T11:55:47.860Z,18.79
2023-05-18T11:58:30.765Z,19.10
2023-05-18T12:01:15.337Z,19.16
2023-05-18T12:04:01.809Z,19.26
2023-05-18T12:06:42.940Z,19.37
2023-05-18T12:09:23.770Z,19.48
2023-05-18T12:12:03.846Z,19.66
2023-05-18T12:14:47.655Z,19.92
2023-05-18T12:17:27.880Z,20.18
2023-05-18T12:20:07.692Z,20.39
2023-05-18T12:22:54.168Z,20.37
2023-05-18T12:25:34.806Z,20.33
2023-05-18T12:28:16.801Z,20.26
2023-05-18T12:31:03.720Z,20.45
2023-05-18T12:33:43.849Z,20.79
2023-05-18T12:36:23.590Z,20.99
2023-05-18T12:39:03.799Z,21.12
2023-05-18T12:41:43.650Z,21.17
2023-05-18T12:44:23.683Z,21.09
2023-05-18T12:47:03.642Z,21.04
2023-05-18T12:49:45.788Z,21.27
2023-05-18T12:52:27.718Z,21.49
2023-05-18T12:55:08.338Z,21.56
2023-05-18T12:57:49.682Z,21.54
2023-05-18T13:00:29.705Z,21.58
2023-05-18T13:03:15.940Z,21.67
2023-05-18T13:06:14.632Z,21.60
2023-05-18T13:08:54.526Z,21.70
2023-05-18T13:11:35.355Z,22.01
2023-05-18T13:14:17.592Z,22.59
2023-05-18T13:16:58.763Z,23.02
2023-05-18T13:19:41.584Z,22.95
2023-05-18T13:22:22.612Z,22.95
2023-05-18T13:25:02.556Z,23.06
2023-05-18T13:27:42.638Z,22.98
2023-05-18T13:30:22.508Z,22.76
2023-05-18T13:33:17.483Z,22.70
2023-05-18T13:36:04.493Z,22.82
2023-05-18T13:38:37.715Z,22.95
2023-05-18T13:41:24.491Z,23.25
2023-05-18T13:43:57.600Z,23.56
2023-05-18T13:46:44.517Z,23.77
2023-05-18T13:49:17.561Z,24.04
2023-05-18T13:52:06.505Z,24.25
2023-05-18T13:54:39.698Z,24.49
2023-05-18T13:57:26.502Z,24.63
2023-05-18T14:00:03.194Z,24.83
2023-05-18T14:02:53.722Z,24.88
2023-05-18T14:05:27.564Z,24.79
2023-05-18T14:08:14.408Z,24.45
2023-05-18T14:10:47.574Z,24.32
2023-05-18T14:13:34.422Z,24.32
2023-05-18T14:16:07.533Z,24.55
2023-05-18T14:18:54.468Z,24.64
2023-05-18T14:21:27.495Z,24.72
2023-05-18T14:24:16.447Z,24.79
2023-05-18T14:26:51.172Z,25.03
2023-05-18T14:29:40.403Z,25.18
2023-05-18T14:32:14.517Z,25.33
2023-05-18T14:35:04.379Z,25.47
2023-05-18T14:37:37.554Z,25.71
2023-05-18T14:40:24.363Z,25.75
2023-05-18T14:42:57.474Z,25.84
2023-05-18T14:45:48.373Z,25.79
2023-05-18T14:48:27.468Z,25.66
2023-05-18T14:51:14.396Z,25.67
2023-05-18T14:53:48.432Z,25.64
2023-05-18T14:56:35.334Z,25.56
2023-05-18T14:59:09.417Z,25.69
2023-05-18T15:01:56.481Z,25.93
2023-05-18T15:04:30.382Z,26.31
2023-05-18T15:07:17.703Z,26.31
2023-05-18T15:09:51.493Z,26.19
2023-05-18T15:12:38.289Z,26.04
2023-05-18T15:15:12.411Z,25.88
2023-05-18T15:17:59.346Z,25.71
2023-05-18T15:20:33.622Z,25.46
2023-05-18T15:23:21.323Z,25.12
2023-05-18T15:25:57.364Z,24.81
2023-05-18T15:28:44.222Z,24.45
2023-05-18T15:31:17.353Z,24.24
2023-05-18T15:34:04.268Z,24.19
2023-05-18T15:36:39.104Z,24.06
2023-05-18T15:39:26.208Z,23.74
2023-05-18T15:41:59.319Z,23.51
2023-05-18T15:44:46.227Z,23.31
2023-05-18T15:47:19.317Z,23.10
2023-05-18T15:50:06.120Z,22.76
2023-05-18T15:52:39.287Z,22.43
2023-05-18T15:55:27.208Z,22.30
2023-05-18T15:58:03.799Z,22.11
2023-05-18T16:00:50.220Z,21.88
2023-05-18T16:03:23.435Z,21.58
2023-05-18T16:06:10.157Z,21.30
2023-05-18T16:08:46.019Z,21.08
2023-05-18T16:11:33.167Z,20.93
2023-05-18T16:14:06.356Z,20.79
2023-05-18T16:16:53.556Z,20.62
2023-05-18T16:19:27.791Z,20.50
2023-05-18T16:22:16.182Z,20.39
2023-05-18T16:24:49.931Z,20.28
2023-05-18T16:27:37.136Z,20.32
2023-05-18T16:30:11.245Z,20.26
2023-05-18T16:32:58.152Z,20.01
2023-05-18T16:35:32.115Z,19.87
2023-05-18T16:38:20.059Z,19.79
2023-05-18T16:40:53.209Z,19.80
2023-05-18T16:43:41.062Z,19.85
2023-05-18T16:46:14.253Z,19.78
2023-05-18T16:49:02.081Z,19.67
2023-05-18T16:51:35.158Z,19.52
2023-05-18T16:54:22.102Z,19.50
2023-05-18T16:56:56.773Z,19.43
2023-05-18T16:59:44.018Z,19.31
2023-05-18T17:02:18.054Z,19.16
2023-05-18T17:05:06.349Z,19.06
2023-05-18T17:07:41.235Z,18.81
2023-05-18T17:10:28.066Z,18.54
2023-05-18T17:13:01.188Z,18.32
2023-05-18T17:15:48.254Z,18.23
2023-05-18T17:18:22.113Z,18.15
2023-05-18T17:21:08.995Z,17.99
2023-05-18T17:23:42.122Z,17.77
2023-05-18T17:26:29.001Z,17.56
2023-05-18T17:29:03.075Z,17.36
2023-05-18T17:31:57.091Z,17.22
2023-05-18T17:34:50.947Z,17.09
2023-05-18T17:37:38.932Z,16.93
2023-05-18T17:40:13.147Z,16.70
2023-05-18T17:42:59.948Z,16.53
2023-05-18T17:45:33.050Z,16.49
2023-05-18T17:48:19.952Z,16.41
2023-05-18T17:50:52.998Z,16.30
2023-05-18T17:53:40.906Z,16.20
2023-05-18T17:56:15.089Z,15.99
2023-05-18T17:59:01.955Z,15.82
2023-05-18T18:01:36.181Z,15.74
2023-05-18T18:04:23.176Z,15.63
2023-05-18T18:06:58.976Z,15.52
2023-05-18T18:09:46.902Z,15.43
2023-05-18T18:12:20.030Z,15.32
2023-05-18T18:15:06.840Z,15.21
2023-05-18T18:17:40.084Z,15.13
2023-05-18T18:20:28.120Z,15.07
2023-05-18T18:23:01.986Z,14.96
2023-05-18T18:25:49.863Z,14.90
2023-05-18T18:28:22.999Z,14.82
2023-05-18T18:31:16.916Z,14.72
2023-05-18T18:34:10.803Z,14.62
2023-05-18T18:36:57.816Z,14.53
2023-05-18T18:39:31.056Z,14.41
2023-05-18T18:42:21.397Z,14.30
2023-05-18T18:44:56.941Z,14.23
2023-05-18T18:47:45.835Z,14.16
2023-05-18T18:50:18.906Z,14.12
2023-05-18T18:53:05.792Z,14.06
2023-05-18T18:55:38.892Z,14.02
2023-05-18T18:58:25.837Z,13.98
2023-05-18T19:00:58.940Z,13.92
2023-05-18T19:03:45.796Z,13.86
2023-05-18T19:06:18.902Z,13.81
2023-05-18T19:09:05.786Z,13.74
2023-05-18T19:11:38.870Z,13.66
2023-05-18T19:14:25.744Z,13.57
2023-05-18T19:16:59.787Z,13.49
2023-05-18T19:19:46.695Z,13.44
2023-05-18T19:22:19.902Z,13.39
2023-05-18T19:25:06.961Z,13.33
2023-05-18T19:27:40.866Z,13.23
2023-05-18T19:30:28.713Z,13.15
2023-05-18T19:33:01.821Z,13.11
2023-05-18T19:35:48.712Z,13.05
2023-05-18T19:38:22.722Z,12.98
2023-05-18T19:41:09.653Z,12.92
2023-05-18T19:43:42.860Z,12.86
2023-05-18T19:46:29.815Z,12.80
2023-05-18T19:49:04.334Z,12.74
2023-05-18T19:51:51.597Z,12.68
2023-05-18T19:54:24.686Z,12.62
2023-05-18T19:57:11.615Z,12.55
2023-05-18T19:59:44.739Z,12.49
2023-05-18T20:02:31.671Z,12.41
2023-05-18T20:05:06.872Z,12.36
2023-05-18T20:07:53.587Z,12.30
2023-05-18T20:10:26.704Z,12.23
2023-05-18T20:13:13.567Z,12.19
2023-05-18T20:15:47.272Z,12.12
2023-05-18T20:18:35.588Z,12.04
2023-05-18T20:21:09.012Z,11.98
2023-05-18T20:23:55.520Z,11.93
2023-05-18T20:26:30.482Z,11.88
2023-05-18T20:29:18.779Z,11.83
2023-05-18T20:31:54.860Z,11.78
2023-05-18T20:34:41.554Z,11.71
2023-05-18T20:37:14.668Z,11.65
2023-05-18T20:40:04.498Z,11.61
2023-05-18T20:42:40.742Z,11.55
2023-05-18T20:45:28.530Z,11.49
2023-05-18T20:48:03.684Z,11.44
2023-05-18T20:50:50.537Z,11.38
2023-05-18T20:53:23.665Z,11.30
2023-05-18T20:56:12.517Z,11.24
2023-05-18T20:58:50.200Z,11.19
2023-05-18T21:01:37.537Z,11.12
2023-05-18T21:04:13.295Z,11.07
2023-05-18T21:07:00.501Z,11.01
2023-05-18T21:09:34.657Z,10.96
2023-05-18T21:12:21.506Z,10.91
2023-05-18T21:14:55.074Z,10.86
2023-05-18T21:17:42.490Z,10.81
2023-05-18T21:20:16.565Z,10.77
2023-05-18T21:23:03.448Z,10.71
2023-05-18T21:25:37.513Z,10.66
2023-05-18T21:28:25.452Z,10.60
2023-05-18T21:31:00.142Z,10.54
2023-05-18T21:33:48.856Z,10.47
2023-05-18T21:36:22.531Z,10.41
2023-05-18T21:39:11.434Z,10.34
2023-05-18T21:41:44.618Z,10.28
2023-05-18T21:44:31.425Z,10.21
2023-05-18T21:47:04.798Z,10.14
2023-05-18T21:49:51.316Z,10.06
2023-05-18T21:52:24.508Z,10.02
2023-05-18T21:55:11.366Z,9.96
2023-05-18T21:57:44.477Z,9.91
2023-05-18T22:00:31.692Z,9.86
2023-05-18T22:03:05.546Z,9.81
2023-05-18T22:05:52.317Z,9.76
2023-05-18T22:08:26.402Z,9.73
2023-05-18T22:11:13.325Z,9.68
2023-05-18T22:13:47.417Z,9.64
2023-05-18T22:16:34.342Z,9.60
2023-05-18T22:19:07.477Z,9.54
2023-05-18T22:21:54.274Z,9.49
2023-05-18T22:24:28.054Z,9.45
2023-05-18T22:27:15.259Z,9.39
2023-05-18T22:29:48.353Z,9.33
2023-05-18T22:32:42.374Z,9.27
2023-05-18T22:35:36.273Z,9.22
2023-05-18T22:38:24.216Z,9.15
2023-05-18T22:40:57.382Z,9.11
2023-05-18T22:43:51.237Z,9.10
2023-05-18T22:46:45.249Z,9.09
2023-05-18T22:49:32.206Z,9.08
2023-05-18T22:52:05.363Z,9.06
2023-05-18T22:54:53.220Z,9.03
2023-05-18T22:57:27.308Z,8.98
2023-05-18T23:00:18.240Z,8.94
2023-05-18T23:02:53.203Z,8.91
2023-05-18T23:05:41.416Z,8.87
2023-05-18T23:08:15.307Z,8.83
2023-05-18T23:11:02.220Z,8.80
2023-05-18T23:13:37.822Z,8.76
2023-05-18T23:16:25.182Z,8.72
2023-05-18T23:18:58.855Z,8.67
2023-05-18T23:21:47.176Z,8.62
2023-05-18T23:24:21.293Z,8.57
2023-05-18T23:27:08.148Z,8.52
2023-05-18T23:29:41.281Z,8.47
2023-05-18T23:32:35.212Z,8.44
2023-05-18T23:35:30.102Z,8.45
2023-05-18T23:38:21.394Z,8.45
2023-05-18T23:40:59.200Z,8.44
2023-05-18T23:43:47.078Z,8.43
2023-05-18T23:46:21.217Z,8.40
2023-05-18T23:49:08.145Z,8.36
2023-05-18T23:51:43.178Z,8.31
2023-05-18T23:54:30.081Z,8.25
2023-05-18T23:57:04.722Z,8.19
2023-05-18T23:59:52.025Z,8.14
